aviador You're here:

YBRM Decoded Metar

BROOME in AUSTRALIA
Report Time2017-08-19 20:00:00
UTC Time2017-08-19 20:29:43
Flight Rules vfr VFR
Wind030° at 05 kt
W.Decomp.*RWY 10: 1.5 kt HW 4.8 kt LCW
W.Rank030° ranks 34
Current wind is above 030° avg. (4.6)
Visibility9999 m
Phenomena:N/A
Clouds:N/A
Expected CloudBase > 400 ft AGL from Temp-Dew spread
CeilingNone
Temp19°C (ISA +4)
Dew Point18°C (94% RH)
QNH1013 hPa
Density Alt810 ft
Elevation56 ft
Report Wrong Elevation
Raw Report
METAR YBRM 192000Z AUTO 03005KT 9999 // NCD 19/18 Q1013=

Extra information for YBRM:More info

Metar Taf Metar & Taf Last 4 Metars F.Rules Stats Wind Profile Meteogram Temp Stats Airport Information Weather charts Add Link Nearby VenuesMetar ALERT Operation Metar Decoded Social comments